This is the latest recevied weather packets stored in our database for station/object EA1RCG-11. If no packets are shown the sender has not sent any weather packets the latest 10 day(s).
| Time | Temp. | Humidity | Pressure | Rain* | Wind** | Luminosity | Snow |
|---|---|---|---|---|---|---|---|
| 1777845872 | 13.89° C | 66% | 978.7 hPa | - | - | - | - |
| 1777844072 | 13.89° C | 66% | 978.7 hPa | - | - | - | - |
| 1777842271 | 14.44° C | 66% | 978.7 hPa | - | - | - | - |
| 1777840471 | 14.44° C | 66% | 978.3 hPa | - | - | - | - |
| 1777838671 | 14.44° C | 66% | 977.9 hPa | - | - | - | - |
| 1777836871 | 14.44° C | 66% | 977.7 hPa | - | - | - | - |
| 1777835071 | 15° C | 66% | 977.3 hPa | - | - | - | - |
| 1777833271 | 14.44° C | 67% | 977 hPa | - | - | - | - |
| 1777831471 | 15.56° C | 65% | 976.9 hPa | - | - | - | - |
| 1777829671 | 16.67° C | 64% | 976.7 hPa | - | - | - | - |
| 1777827870 | 17.22° C | 63% | 976.8 hPa | - | - | - | - |
| 1777826070 | 18.33° C | 60% | 976.8 hPa | - | - | - | - |
| 1777824270 | 16.67° C | 63% | 976.7 hPa | - | - | - | - |
| 1777822470 | 15.56° C | 65% | 977.2 hPa | - | - | - | - |
| 1777820670 | 16.11° C | 65% | 976.3 hPa | - | - | - | - |
| 1777818870 | 16.11° C | 66% | 976.5 hPa | - | - | - | - |
| 1777817069 | 17.22° C | 64% | 976.3 hPa | - | - | - | - |
| 1777815269 | 16.67° C | 66% | 976.1 hPa | - | - | - | - |
| 1777813469 | 18.33° C | 64% | 975.9 hPa | - | - | - | - |
| 1777811669 | 22.22° C | 58% | 975.5 hPa | - | - | - | - |
| 1777809869 | 24.44° C | 55% | 975.5 hPa | - | - | - | - |
| 1777808069 | 24.44° C | 55% | 975.6 hPa | - | - | - | - |
| 1777806269 | 26.67° C | 54% | 975.9 hPa | - | - | - | - |
| 1777804469 | 37.22° C | 40% | 975.9 hPa | - | - | - | - |
| 1777802669 | 43.33° C | 34% | 976.6 hPa | - | - | - | - |
* Rain since midnight (hover to see other rain measurements)
** Current wind speed in m/s (hover to see current wind gust speed)